sensor_id;sensor_type;location;lat;lon;timestamp;pressure;altitude;pressure_sealevel;temperature;humidity
26859;BME280;14429;48.346;16.338;2023-06-14T00:02:06;99427.63;;;23.45;46.62
26859;BME280;14429;48.346;16.338;2023-06-14T00:04:32;99433.06;;;23.45;46.41
26859;BME280;14429;48.346;16.338;2023-06-14T00:06:59;99433.56;;;23.48;46.56
26859;BME280;14429;48.346;16.338;2023-06-14T00:09:24;99426.44;;;23.47;46.70
26859;BME280;14429;48.346;16.338;2023-06-14T00:11:49;99429.31;;;23.46;46.76
26859;BME280;14429;48.346;16.338;2023-06-14T00:14:15;99430.53;;;23.43;46.63
26859;BME280;14429;48.346;16.338;2023-06-14T00:16:40;99425.59;;;23.47;46.66
26859;BME280;14429;48.346;16.338;2023-06-14T00:19:06;99430.84;;;23.20;43.39
26859;BME280;14429;48.346;16.338;2023-06-14T00:21:31;99416.59;;;23.32;46.84
26859;BME280;14429;48.346;16.338;2023-06-14T00:23:58;99425.69;;;23.39;46.51
26859;BME280;14429;48.346;16.338;2023-06-14T00:26:24;99417.69;;;23.37;46.87
26859;BME280;14429;48.346;16.338;2023-06-14T00:28:49;99424.63;;;23.40;46.75
26859;BME280;14429;48.346;16.338;2023-06-14T00:31:15;99430.09;;;23.40;46.49
26859;BME280;14429;48.346;16.338;2023-06-14T00:33:40;99427.94;;;23.35;46.58
26859;BME280;14429;48.346;16.338;2023-06-14T00:36:05;99423.78;;;23.39;46.85
26859;BME280;14429;48.346;16.338;2023-06-14T00:38:31;99428.00;;;23.42;46.77
26859;BME280;14429;48.346;16.338;2023-06-14T00:40:58;99423.59;;;23.41;46.57
26859;BME280;14429;48.346;16.338;2023-06-14T00:43:23;99422.97;;;23.39;46.49
26859;BME280;14429;48.346;16.338;2023-06-14T00:45:48;99426.69;;;23.38;46.57
26859;BME280;14429;48.346;16.338;2023-06-14T00:48:14;99429.63;;;23.36;46.87
26859;BME280;14429;48.346;16.338;2023-06-14T00:50:40;99417.22;;;23.34;46.45
26859;BME280;14429;48.346;16.338;2023-06-14T00:53:05;99429.81;;;23.35;46.90
26859;BME280;14429;48.346;16.338;2023-06-14T00:55:31;99422.03;;;23.32;46.90
26859;BME280;14429;48.346;16.338;2023-06-14T00:57:58;99427.28;;;23.33;46.45
26859;BME280;14429;48.346;16.338;2023-06-14T01:00:24;99434.97;;;23.30;46.82
26859;BME280;14429;48.346;16.338;2023-06-14T01:02:49;99425.75;;;23.31;46.61
26859;BME280;14429;48.346;16.338;2023-06-14T01:05:15;99427.84;;;23.29;46.72
26859;BME280;14429;48.346;16.338;2023-06-14T01:07:48;99429.91;;;23.27;47.04
26859;BME280;14429;48.346;16.338;2023-06-14T01:10:28;99429.91;;;23.27;46.98
26859;BME280;14429;48.346;16.338;2023-06-14T01:13:02;99426.56;;;23.25;46.76
26859;BME280;14429;48.346;16.338;2023-06-14T01:15:30;99428.59;;;23.23;47.01
26859;BME280;14429;48.346;16.338;2023-06-14T01:17:56;99423.56;;;23.20;46.94
26859;BME280;14429;48.346;16.338;2023-06-14T01:20:22;99424.00;;;23.24;47.01
26859;BME280;14429;48.346;16.338;2023-06-14T01:22:52;99421.47;;;23.22;46.81
26859;BME280;14429;48.346;16.338;2023-06-14T01:25:18;99421.38;;;23.16;47.02
26859;BME280;14429;48.346;16.338;2023-06-14T01:27:43;99417.56;;;23.10;47.24
26859;BME280;14429;48.346;16.338;2023-06-14T01:30:10;99416.16;;;23.14;47.24
26859;BME280;14429;48.346;16.338;2023-06-14T01:32:36;99411.44;;;23.08;47.15
26859;BME280;14429;48.346;16.338;2023-06-14T01:35:02;99418.53;;;22.89;47.17
26859;BME280;14429;48.346;16.338;2023-06-14T01:37:28;99408.22;;;22.98;47.35
26859;BME280;14429;48.346;16.338;2023-06-14T01:39:55;99405.75;;;23.03;47.29
26859;BME280;14429;48.346;16.338;2023-06-14T01:42:22;99408.34;;;23.11;47.15
26859;BME280;14429;48.346;16.338;2023-06-14T01:44:48;99401.25;;;23.10;47.19
26859;BME280;14429;48.346;16.338;2023-06-14T01:47:14;99401.69;;;23.14;46.88
26859;BME280;14429;48.346;16.338;2023-06-14T01:49:40;99407.97;;;23.14;46.94
26859;BME280;14429;48.346;16.338;2023-06-14T01:52:06;99412.59;;;23.14;46.82
26859;BME280;14429;48.346;16.338;2023-06-14T01:54:31;99404.59;;;23.12;47.19
26859;BME280;14429;48.346;16.338;2023-06-14T01:56:58;99410.44;;;23.09;47.04
26859;BME280;14429;48.346;16.338;2023-06-14T01:59:24;99401.63;;;23.07;47.25
26859;BME280;14429;48.346;16.338;2023-06-14T02:04:14;99401.63;;;23.07;47.39
26859;BME280;14429;48.346;16.338;2023-06-14T02:06:39;99402.81;;;23.05;47.24
26859;BME280;14429;48.346;16.338;2023-06-14T02:09:05;99401.97;;;23.04;46.97
26859;BME280;14429;48.346;16.338;2023-06-14T02:11:30;99400.31;;;23.03;47.46
26859;BME280;14429;48.346;16.338;2023-06-14T02:13:57;99395.69;;;23.04;47.04
26859;BME280;14429;48.346;16.338;2023-06-14T02:16:23;99394.88;;;23.03;47.06
26859;BME280;14429;48.346;16.338;2023-06-14T02:18:48;99395.53;;;23.05;46.95
26859;BME280;14429;48.346;16.338;2023-06-14T02:21:13;99396.53;;;23.04;47.24
26859;BME280;14429;48.346;16.338;2023-06-14T02:23:39;99401.16;;;23.04;47.06
26859;BME280;14429;48.346;16.338;2023-06-14T02:26:04;99400.31;;;23.03;47.26
26859;BME280;14429;48.346;16.338;2023-06-14T02:28:30;99402.56;;;23.00;47.07
26859;BME280;14429;48.346;16.338;2023-06-14T02:30:56;99404.81;;;22.97;47.26
26859;BME280;14429;48.346;16.338;2023-06-14T02:33:22;99405.94;;;23.02;46.97
26859;BME280;14429;48.346;16.338;2023-06-14T02:35:47;99395.25;;;23.00;47.05
26859;BME280;14429;48.346;16.338;2023-06-14T02:38:13;99397.31;;;22.98;47.02
26859;BME280;14429;48.346;16.338;2023-06-14T02:40:38;99408.22;;;22.98;47.19
26859;BME280;14429;48.346;16.338;2023-06-14T02:43:03;99411.94;;;22.98;46.93
26859;BME280;14429;48.346;16.338;2023-06-14T02:45:29;99415.69;;;22.97;47.22
26859;BME280;14429;48.346;16.338;2023-06-14T02:47:56;99414.66;;;22.98;46.97
26859;BME280;14429;48.346;16.338;2023-06-14T02:50:21;99409.88;;;22.99;46.98
26859;BME280;14429;48.346;16.338;2023-06-14T02:52:46;99412.34;;;22.95;47.09
26859;BME280;14429;48.346;16.338;2023-06-14T02:55:12;99416.75;;;22.96;47.14
26859;BME280;14429;48.346;16.338;2023-06-14T02:57:37;99418.63;;;22.95;47.22
26859;BME280;14429;48.346;16.338;2023-06-14T03:00:03;99415.06;;;22.95;47.50
26859;BME280;14429;48.346;16.338;2023-06-14T03:02:29;99417.78;;;22.95;47.02
26859;BME280;14429;48.346;16.338;2023-06-14T03:04:56;99418.78;;;22.94;47.29
26859;BME280;14429;48.346;16.338;2023-06-14T03:07:21;99414.38;;;22.93;47.52
26859;BME280;14429;48.346;16.338;2023-06-14T03:09:48;99423.97;;;22.89;47.52
26859;BME280;14429;48.346;16.338;2023-06-14T03:12:13;99423.78;;;22.90;47.13
26859;BME280;14429;48.346;16.338;2023-06-14T03:14:39;99419.00;;;22.92;47.58
26859;BME280;14429;48.346;16.338;2023-06-14T03:17:04;99421.91;;;22.91;47.44
26859;BME280;14429;48.346;16.338;2023-06-14T03:19:30;99425.66;;;22.90;47.30
26859;BME280;14429;48.346;16.338;2023-06-14T03:21:57;99423.97;;;22.89;47.16
26859;BME280;14429;48.346;16.338;2023-06-14T03:24:22;99423.97;;;22.89;47.42
26859;BME280;14429;48.346;16.338;2023-06-14T03:26:48;99430.44;;;22.88;47.50
26859;BME280;14429;48.346;16.338;2023-06-14T03:29:13;99427.91;;;22.86;47.32
26859;BME280;14429;48.346;16.338;2023-06-14T03:31:56;99431.50;;;22.87;47.23
26859;BME280;14429;48.346;16.338;2023-06-14T03:34:21;99436.94;;;22.87;47.51
26859;BME280;14429;48.346;16.338;2023-06-14T03:36:47;99435.63;;;22.83;47.28
26859;BME280;14429;48.346;16.338;2023-06-14T03:39:14;99434.75;;;22.82;47.26
26859;BME280;14429;48.346;16.338;2023-06-14T03:41:39;99440.38;;;22.81;47.53
26859;BME280;14429;48.346;16.338;2023-06-14T03:44:04;99439.72;;;22.79;47.33
26859;BME280;14429;48.346;16.338;2023-06-14T03:46:30;99451.63;;;22.78;47.57
26859;BME280;14429;48.346;16.338;2023-06-14T03:48:55;99456.03;;;22.79;47.50
26859;BME280;14429;48.346;16.338;2023-06-14T03:51:20;99455.66;;;22.82;47.22
26859;BME280;14429;48.346;16.338;2023-06-14T03:53:46;99455.66;;;22.82;47.30
26859;BME280;14429;48.346;16.338;2023-06-14T03:56:13;99462.16;;;22.81;47.32
26859;BME280;14429;48.346;16.338;2023-06-14T03:58:38;99468.25;;;22.83;47.35
26859;BME280;14429;48.346;16.338;2023-06-14T04:01:03;99474.44;;;22.77;47.51
26859;BME280;14429;48.346;16.338;2023-06-14T04:03:29;99480.56;;;22.71;47.31
26859;BME280;14429;48.346;16.338;2023-06-14T04:05:54;99482.66;;;22.69;47.76
26859;BME280;14429;48.346;16.338;2023-06-14T04:08:20;99485.66;;;22.74;47.59
26859;BME280;14429;48.346;16.338;2023-06-14T04:10:45;99483.50;;;22.70;47.70
26859;BME280;14429;48.346;16.338;2023-06-14T04:13:12;99490.81;;;22.69;47.39
26859;BME280;14429;48.346;16.338;2023-06-14T04:15:38;99507.78;;;22.71;47.32
26859;BME280;14429;48.346;16.338;2023-06-14T04:18:03;99499.81;;;22.70;47.49
26859;BME280;14429;48.346;16.338;2023-06-14T04:20:29;99510.69;;;22.70;47.47
26859;BME280;14429;48.346;16.338;2023-06-14T04:22:56;99518.16;;;22.68;47.64
26859;BME280;14429;48.346;16.338;2023-06-14T04:25:21;99530.44;;;22.64;47.47
26859;BME280;14429;48.346;16.338;2023-06-14T04:27:47;99526.53;;;22.66;47.72
26859;BME280;14429;48.346;16.338;2023-06-14T04:30:14;99537.22;;;22.68;47.80
26859;BME280;14429;48.346;16.338;2023-06-14T04:32:39;99539.09;;;22.67;47.87
26859;BME280;14429;48.346;16.338;2023-06-14T04:35:05;99538.72;;;22.70;47.44
26859;BME280;14429;48.346;16.338;2023-06-14T04:37:31;99537.53;;;22.72;47.63
26859;BME280;14429;48.346;16.338;2023-06-14T04:39:57;99542.44;;;22.77;47.21
26859;BME280;14429;48.346;16.338;2023-06-14T04:42:23;99541.09;;;22.73;47.26
26859;BME280;14429;48.346;16.338;2023-06-14T04:44:48;99540.03;;;22.74;47.45
26859;BME280;14429;48.346;16.338;2023-06-14T04:47:15;99541.59;;;22.76;47.20
26859;BME280;14429;48.346;16.338;2023-06-14T04:49:40;99535.41;;;22.82;47.05
26859;BME280;14429;48.346;16.338;2023-06-14T04:52:06;99540.47;;;22.85;47.30
26859;BME280;14429;48.346;16.338;2023-06-14T04:54:32;99545.75;;;22.87;46.89
26859;BME280;14429;48.346;16.338;2023-06-14T04:56:57;99535.72;;;22.65;46.41
26859;BME280;14429;48.346;16.338;2023-06-14T04:59:22;99537.22;;;22.53;47.63
26859;BME280;14429;48.346;16.338;2023-06-14T05:01:48;99539.56;;;22.70;47.54
26859;BME280;14429;48.346;16.338;2023-06-14T05:04:15;99548.06;;;22.53;47.29
26859;BME280;14429;48.346;16.338;2023-06-14T05:06:40;99538.09;;;22.68;47.30
26859;BME280;14429;48.346;16.338;2023-06-14T05:09:06;99545.16;;;22.77;47.44
26859;BME280;14429;48.346;16.338;2023-06-14T05:11:31;99538.59;;;22.86;47.29
26859;BME280;14429;48.346;16.338;2023-06-14T05:13:57;99535.78;;;22.94;46.79
26859;BME280;14429;48.346;16.338;2023-06-14T05:16:22;99535.34;;;22.90;44.16
26859;BME280;14429;48.346;16.338;2023-06-14T05:18:47;99525.47;;;23.03;45.71
26859;BME280;14429;48.346;16.338;2023-06-14T05:21:14;99522.03;;;23.09;44.83
26859;BME280;14429;48.346;16.338;2023-06-14T05:23:39;99532.91;;;22.95;44.61
26859;BME280;14429;48.346;16.338;2023-06-14T05:26:05;99526.44;;;23.10;45.59
26859;BME280;14429;48.346;16.338;2023-06-14T05:28:30;99541.63;;;23.19;44.25
26859;BME280;14429;48.346;16.338;2023-06-14T05:30:56;99530.25;;;23.30;43.01
26859;BME280;14429;48.346;16.338;2023-06-14T05:33:21;99534.28;;;23.34;43.41
26859;BME280;14429;48.346;16.338;2023-06-14T05:35:47;99537.28;;;23.67;43.28
26859;BME280;14429;48.346;16.338;2023-06-14T05:38:13;99537.88;;;23.63;44.55
26859;BME280;14429;48.346;16.338;2023-06-14T05:40:39;99546.25;;;23.61;44.99
26859;BME280;14429;48.346;16.338;2023-06-14T05:43:04;99550.28;;;23.65;44.67
26859;BME280;14429;48.346;16.338;2023-06-14T05:45:30;99543.66;;;23.74;44.63
26859;BME280;14429;48.346;16.338;2023-06-14T05:47:55;99549.56;;;23.78;44.60
26859;BME280;14429;48.346;16.338;2023-06-14T05:50:21;99540.56;;;23.77;43.20
26859;BME280;14429;48.346;16.338;2023-06-14T05:52:46;99550.78;;;23.75;44.13
26859;BME280;14429;48.346;16.338;2023-06-14T05:55:13;99546.72;;;23.51;39.25
26859;BME280;14429;48.346;16.338;2023-06-14T05:57:38;99550.66;;;23.05;41.57
26859;BME280;14429;48.346;16.338;2023-06-14T06:00:05;99554.78;;;23.01;42.45
26859;BME280;14429;48.346;16.338;2023-06-14T06:02:30;99555.34;;;23.40;45.38
26859;BME280;14429;48.346;16.338;2023-06-14T06:04:56;99561.91;;;23.59;44.73
26859;BME280;14429;48.346;16.338;2023-06-14T06:07:21;99555.72;;;23.65;45.05
26859;BME280;14429;48.346;16.338;2023-06-14T06:09:46;99551.63;;;23.76;44.74
26859;BME280;14429;48.346;16.338;2023-06-14T06:12:13;99565.16;;;23.83;44.58
26859;BME280;14429;48.346;16.338;2023-06-14T06:14:39;99560.53;;;23.98;42.74
26859;BME280;14429;48.346;16.338;2023-06-14T06:17:05;99556.75;;;24.13;43.26
26859;BME280;14429;48.346;16.338;2023-06-14T06:19:30;99561.78;;;24.16;43.42
26859;BME280;14429;48.346;16.338;2023-06-14T06:21:55;99562.25;;;24.20;43.49
26859;BME280;14429;48.346;16.338;2023-06-14T06:24:21;99569.63;;;24.40;40.61
26859;BME280;14429;48.346;16.338;2023-06-14T06:26:46;99563.78;;;24.43;42.41
26859;BME280;14429;48.346;16.338;2023-06-14T06:29:13;99571.88;;;24.57;41.94
26859;BME280;14429;48.346;16.338;2023-06-14T06:31:38;99568.88;;;24.93;38.51
26859;BME280;14429;48.346;16.338;2023-06-14T06:34:04;99571.56;;;25.20;35.74
26859;BME280;14429;48.346;16.338;2023-06-14T06:36:29;99568.44;;;25.23;38.62
26859;BME280;14429;48.346;16.338;2023-06-14T06:38:55;99575.03;;;25.29;36.22
26859;BME280;14429;48.346;16.338;2023-06-14T06:41:20;99574.56;;;25.25;38.05
26859;BME280;14429;48.346;16.338;2023-06-14T06:43:45;99578.81;;;25.34;40.29
26859;BME280;14429;48.346;16.338;2023-06-14T06:46:12;99577.16;;;25.40;35.66
26859;BME280;14429;48.346;16.338;2023-06-14T06:48:38;99579.19;;;25.25;40.23
26859;BME280;14429;48.346;16.338;2023-06-14T06:51:03;99578.75;;;25.21;40.58
26859;BME280;14429;48.346;16.338;2023-06-14T06:53:28;99577.59;;;25.10;40.29
26859;BME280;14429;48.346;16.338;2023-06-14T06:55:54;99569.13;;;25.25;40.24
26859;BME280;14429;48.346;16.338;2023-06-14T06:58:19;99580.31;;;25.37;40.40
26859;BME280;14429;48.346;16.338;2023-06-14T07:00:44;99582.03;;;25.11;40.97
26859;BME280;14429;48.346;16.338;2023-06-14T07:03:11;99574.88;;;25.76;33.68
26859;BME280;14429;48.346;16.338;2023-06-14T07:05:37;99573.72;;;25.52;39.77
26859;BME280;14429;48.346;16.338;2023-06-14T07:08:02;99569.84;;;25.80;34.88
26859;BME280;14429;48.346;16.338;2023-06-14T07:10:28;99570.06;;;25.78;34.79
26859;BME280;14429;48.346;16.338;2023-06-14T07:12:53;99578.84;;;25.07;40.78
26859;BME280;14429;48.346;16.338;2023-06-14T07:15:19;99573.88;;;24.90;40.92
26859;BME280;14429;48.346;16.338;2023-06-14T07:17:44;99578.31;;;25.24;39.17
26859;BME280;14429;48.346;16.338;2023-06-14T07:20:12;99575.06;;;25.69;35.94
26859;BME280;14429;48.346;16.338;2023-06-14T07:22:38;99571.78;;;25.46;38.52
26859;BME280;14429;48.346;16.338;2023-06-14T07:34:12;99588.69;;;24.61;37.88
26859;BME280;14429;48.346;16.338;2023-06-14T07:36:39;99586.31;;;24.51;39.90
26859;BME280;14429;48.346;16.338;2023-06-14T07:39:04;99590.47;;;24.47;39.76
26859;BME280;14429;48.346;16.338;2023-06-14T07:41:29;99588.97;;;24.45;39.97
26859;BME280;14429;48.346;16.338;2023-06-14T07:43:55;99586.44;;;24.43;39.32
26859;BME280;14429;48.346;16.338;2023-06-14T07:46:20;99594.50;;;23.39;37.29
26859;BME280;14429;48.346;16.338;2023-06-14T07:48:46;99597.22;;;23.39;41.57
26859;BME280;14429;48.346;16.338;2023-06-14T07:51:11;99599.19;;;23.59;42.23
26859;BME280;14429;48.346;16.338;2023-06-14T07:53:38;99593.09;;;23.43;42.18
26859;BME280;14429;48.346;16.338;2023-06-14T07:56:03;99596.59;;;23.51;39.04
26859;BME280;14429;48.346;16.338;2023-06-14T07:58:29;99590.47;;;23.35;43.47
26859;BME280;14429;48.346;16.338;2023-06-14T08:00:54;99593.09;;;23.43;39.46
26859;BME280;14429;48.346;16.338;2023-06-14T08:03:19;99586.91;;;23.49;40.61
26859;BME280;14429;48.346;16.338;2023-06-14T08:05:45;99600.94;;;23.09;39.27
26859;BME280;14429;48.346;16.338;2023-06-14T08:08:10;99595.50;;;23.38;43.93
26859;BME280;14429;48.346;16.338;2023-06-14T08:10:37;99597.00;;;23.26;41.42
26859;BME280;14429;48.346;16.338;2023-06-14T08:13:03;99598.53;;;23.43;44.03
26859;BME280;14429;48.346;16.338;2023-06-14T08:15:28;99593.66;;;23.24;39.79
26859;BME280;14429;48.346;16.338;2023-06-14T08:17:53;99595.88;;;23.06;42.23
26859;BME280;14429;48.346;16.338;2023-06-14T08:20:19;99600.66;;;23.33;44.24
26859;BME280;14429;48.346;16.338;2023-06-14T08:22:44;99600.25;;;22.93;39.59
26859;BME280;14429;48.346;16.338;2023-06-14T08:25:10;99598.63;;;22.84;40.22
26859;BME280;14429;48.346;16.338;2023-06-14T08:27:36;99603.16;;;22.70;41.82
26859;BME280;14429;48.346;16.338;2023-06-14T08:30:03;99601.00;;;22.87;39.18
26859;BME280;14429;48.346;16.338;2023-06-14T08:32:28;99600.00;;;23.02;44.64
26859;BME280;14429;48.346;16.338;2023-06-14T08:34:54;99606.69;;;22.78;38.02
26859;BME280;14429;48.346;16.338;2023-06-14T08:37:19;99607.78;;;23.05;44.54
26859;BME280;14429;48.346;16.338;2023-06-14T08:39:44;99612.47;;;23.11;42.79
26859;BME280;14429;48.346;16.338;2023-06-14T08:42:10;99604.16;;;22.76;38.07
26859;BME280;14429;48.346;16.338;2023-06-14T08:44:37;99607.41;;;23.08;43.84
26859;BME280;14429;48.346;16.338;2023-06-14T08:47:03;99605.00;;;22.77;38.28
26859;BME280;14429;48.346;16.338;2023-06-14T08:49:31;99606.31;;;22.81;42.67
26859;BME280;14429;48.346;16.338;2023-06-14T08:51:58;99615.38;;;22.96;41.03
26859;BME280;14429;48.346;16.338;2023-06-14T08:54:25;99599.41;;;22.93;37.80
26859;BME280;14429;48.346;16.338;2023-06-14T08:56:50;99605.06;;;23.05;43.80
26859;BME280;14429;48.346;16.338;2023-06-14T08:59:16;99608.72;;;22.98;38.71
26859;BME280;14429;48.346;16.338;2023-06-14T09:01:43;99605.78;;;22.99;43.27
26859;BME280;14429;48.346;16.338;2023-06-14T09:04:10;99608.72;;;23.12;43.34
26859;BME280;14429;48.346;16.338;2023-06-14T09:06:35;99603.59;;;23.17;43.82
26859;BME280;14429;48.346;16.338;2023-06-14T09:09:00;99605.66;;;23.29;44.66
26859;BME280;14429;48.346;16.338;2023-06-14T09:11:26;99610.88;;;23.31;43.39
26859;BME280;14429;48.346;16.338;2023-06-14T09:13:51;99610.34;;;23.21;39.77
26859;BME280;14429;48.346;16.338;2023-06-14T09:16:17;99614.84;;;23.14;43.52
26859;BME280;14429;48.346;16.338;2023-06-14T09:18:46;99608.25;;;23.23;43.11
26859;BME280;14429;48.346;16.338;2023-06-14T09:21:12;99606.13;;;23.33;44.16
26859;BME280;14429;48.346;16.338;2023-06-14T09:23:38;99610.88;;;23.31;39.54
26859;BME280;14429;48.346;16.338;2023-06-14T09:26:07;99606.22;;;23.25;40.81
26859;BME280;14429;48.346;16.338;2023-06-14T09:28:32;99615.41;;;23.24;41.86
26859;BME280;14429;48.346;16.338;2023-06-14T09:30:58;99614.56;;;23.09;38.70
26859;BME280;14429;48.346;16.338;2023-06-14T09:33:25;99609.88;;;23.18;42.60
26859;BME280;14429;48.346;16.338;2023-06-14T09:35:55;99599.63;;;23.05;38.99
26859;BME280;14429;48.346;16.338;2023-06-14T09:38:20;99600.56;;;23.26;39.22
26859;BME280;14429;48.346;16.338;2023-06-14T09:40:46;99598.22;;;23.24;38.13
26859;BME280;14429;48.346;16.338;2023-06-14T09:43:11;99604.13;;;22.98;37.42
26859;BME280;14429;48.346;16.338;2023-06-14T09:45:37;99591.56;;;23.26;37.07
26859;BME280;14429;48.346;16.338;2023-06-14T09:48:03;99600.09;;;23.23;37.19
26859;BME280;14429;48.346;16.338;2023-06-14T09:50:29;99603.03;;;23.36;37.90
26859;BME280;14429;48.346;16.338;2023-06-14T09:53:01;99605.25;;;23.18;35.16
26859;BME280;14429;48.346;16.338;2023-06-14T09:55:30;99602.28;;;22.77;35.23
26859;BME280;14429;48.346;16.338;2023-06-14T09:57:56;99598.50;;;23.14;40.86
26859;BME280;14429;48.346;16.338;2023-06-14T10:00:23;99603.50;;;23.25;34.75
26859;BME280;14429;48.346;16.338;2023-06-14T10:02:54;99603.75;;;23.30;40.71
26859;BME280;14429;48.346;16.338;2023-06-14T10:05:24;99604.78;;;23.15;35.14
26859;BME280;14429;48.346;16.338;2023-06-14T10:07:52;99606.31;;;23.17;36.21
26859;BME280;14429;48.346;16.338;2023-06-14T10:10:20;99606.88;;;23.13;35.26
26859;BME280;14429;48.346;16.338;2023-06-14T10:12:45;99597.84;;;23.26;40.92
26859;BME280;14429;48.346;16.338;2023-06-14T10:15:19;99604.63;;;23.16;39.66
26859;BME280;14429;48.346;16.338;2023-06-14T10:17:50;99602.03;;;23.00;36.06
26859;BME280;14429;48.346;16.338;2023-06-14T10:20:24;99598.75;;;23.05;36.30
26859;BME280;14429;48.346;16.338;2023-06-14T10:22:56;99605.31;;;22.96;34.75
26859;BME280;14429;48.346;16.338;2023-06-14T10:25:28;99600.94;;;23.09;34.78
26859;BME280;14429;48.346;16.338;2023-06-14T10:28:02;99600.00;;;23.02;39.22
26859;BME280;14429;48.346;16.338;2023-06-14T10:30:28;99599.22;;;23.08;33.86
26859;BME280;14429;48.346;16.338;2023-06-14T10:33:06;99600.72;;;22.97;33.05
26859;BME280;14429;48.346;16.338;2023-06-14T10:35:32;99597.19;;;23.10;41.47
26859;BME280;14429;48.346;16.338;2023-06-14T10:38:06;99594.19;;;23.20;35.01
26859;BME280;14429;48.346;16.338;2023-06-14T10:40:34;99585.38;;;23.32;35.26
26859;BME280;14429;48.346;16.338;2023-06-14T10:42:59;99599.25;;;23.37;36.47
26859;BME280;14429;48.346;16.338;2023-06-14T10:45:25;99593.91;;;23.15;34.11
26859;BME280;14429;48.346;16.338;2023-06-14T10:47:50;99597.09;;;23.18;35.40
26859;BME280;14429;48.346;16.338;2023-06-14T10:50:15;99583.88;;;23.29;35.30
26859;BME280;14429;48.346;16.338;2023-06-14T10:52:42;99588.28;;;23.30;34.47
26859;BME280;14429;48.346;16.338;2023-06-14T10:55:09;99579.16;;;23.38;32.91
26859;BME280;14429;48.346;16.338;2023-06-14T10:57:37;99574.59;;;23.52;39.69
26859;BME280;14429;48.346;16.338;2023-06-14T11:00:04;99580.09;;;23.45;36.33
26859;BME280;14429;48.346;16.338;2023-06-14T11:02:47;99585.22;;;23.48;35.20
26859;BME280;14429;48.346;16.338;2023-06-14T11:05:15;99593.09;;;23.43;33.84
26859;BME280;14429;48.346;16.338;2023-06-14T11:07:48;99584.25;;;23.41;38.13
26859;BME280;14429;48.346;16.338;2023-06-14T11:10:26;99586.16;;;23.54;40.67
26859;BME280;14429;48.346;16.338;2023-06-14T11:12:55;99577.78;;;23.27;34.11
26859;BME280;14429;48.346;16.338;2023-06-14T11:15:27;99584.53;;;23.31;34.01
26859;BME280;14429;48.346;16.338;2023-06-14T11:17:53;99580.72;;;23.54;36.98
26859;BME280;14429;48.346;16.338;2023-06-14T11:20:20;99574.03;;;23.43;35.98
26859;BME280;14429;48.346;16.338;2023-06-14T11:22:45;99579.78;;;23.48;35.34
26859;BME280;14429;48.346;16.338;2023-06-14T11:25:11;99576.63;;;23.36;35.88
26859;BME280;14429;48.346;16.338;2023-06-14T11:27:36;99585.00;;;23.35;35.43
26859;BME280;14429;48.346;16.338;2023-06-14T11:30:07;99577.41;;;23.59;36.58
26859;BME280;14429;48.346;16.338;2023-06-14T11:32:33;99577.78;;;23.56;35.36
26859;BME280;14429;48.346;16.338;2023-06-14T11:34:58;99578.25;;;23.59;35.79
26859;BME280;14429;48.346;16.338;2023-06-14T11:37:25;99576.38;;;23.60;33.71
26859;BME280;14429;48.346;16.338;2023-06-14T11:39:50;99569.13;;;23.67;40.87
26859;BME280;14429;48.346;16.338;2023-06-14T11:42:16;99569.03;;;23.60;34.36
26859;BME280;14429;48.346;16.338;2023-06-14T11:44:41;99572.69;;;23.25;33.83
26859;BME280;14429;48.346;16.338;2023-06-14T11:47:08;99560.72;;;23.48;35.04
26859;BME280;14429;48.346;16.338;2023-06-14T11:49:35;99566.78;;;23.21;34.35
26859;BME280;14429;48.346;16.338;2023-06-14T11:52:00;99565.28;;;23.19;36.97
26859;BME280;14429;48.346;16.338;2023-06-14T11:54:26;99561.69;;;23.04;37.52
26859;BME280;14429;48.346;16.338;2023-06-14T11:56:51;99561.72;;;23.18;36.57
26859;BME280;14429;48.346;16.338;2023-06-14T11:59:17;99552.34;;;23.35;38.90
26859;BME280;14429;48.346;16.338;2023-06-14T12:01:42;99565.66;;;23.30;42.15
26859;BME280;14429;48.346;16.338;2023-06-14T12:04:09;99563.97;;;23.29;43.21
26859;BME280;14429;48.346;16.338;2023-06-14T12:06:35;99552.72;;;23.32;37.16
26859;BME280;14429;48.346;16.338;2023-06-14T12:09:03;99550.72;;;23.40;37.40
26859;BME280;14429;48.346;16.338;2023-06-14T12:11:33;99552.16;;;23.51;36.95
26859;BME280;14429;48.346;16.338;2023-06-14T12:13:59;99549.97;;;23.60;36.44
26859;BME280;14429;48.346;16.338;2023-06-14T12:16:30;99551.00;;;23.59;35.24
26859;BME280;14429;48.346;16.338;2023-06-14T12:18:55;99542.84;;;23.59;35.74
26859;BME280;14429;48.346;16.338;2023-06-14T12:21:24;99534.09;;;23.64;36.02
26859;BME280;14429;48.346;16.338;2023-06-14T12:23:49;99540.56;;;23.34;36.30
26859;BME280;14429;48.346;16.338;2023-06-14T12:26:15;99544.72;;;23.59;36.75
26859;BME280;14429;48.346;16.338;2023-06-14T12:28:41;99540.47;;;23.42;36.33
26859;BME280;14429;48.346;16.338;2023-06-14T12:31:07;99532.34;;;23.28;38.29
26859;BME280;14429;48.346;16.338;2023-06-14T12:33:32;99548.19;;;23.10;36.01
26859;BME280;14429;48.346;16.338;2023-06-14T12:35:57;99545.00;;;23.21;35.70
26859;BME280;14429;48.346;16.338;2023-06-14T12:38:24;99546.06;;;23.20;36.19
26859;BME280;14429;48.346;16.338;2023-06-14T12:40:50;99539.09;;;23.32;42.51
26859;BME280;14429;48.346;16.338;2023-06-14T12:43:15;99533.91;;;23.37;39.59
26859;BME280;14429;48.346;16.338;2023-06-14T12:45:41;99540.09;;;23.31;34.96
26859;BME280;14429;48.346;16.338;2023-06-14T12:48:06;99536.19;;;23.48;41.21
26859;BME280;14429;48.346;16.338;2023-06-14T12:50:32;99534.50;;;23.47;35.99
26859;BME280;14429;48.346;16.338;2023-06-14T12:52:57;99539.38;;;23.37;36.90
26859;BME280;14429;48.346;16.338;2023-06-14T12:55:24;99536.53;;;23.45;36.73
26859;BME280;14429;48.346;16.338;2023-06-14T12:57:49;99535.63;;;23.52;36.60